sensor_id;sensor_type;location;lat;lon;timestamp;pressure;altitude;pressure_sealevel;temperature;humidity
82476;BME280;72099;43.176;76.872;2024-02-23T00:00:55;90103.19;;;-6.37;65.85
82476;BME280;72099;43.176;76.872;2024-02-23T00:03:56;90110.28;;;-6.39;64.56
82476;BME280;72099;43.176;76.872;2024-02-23T00:06:58;90102.84;;;-6.40;65.53
82476;BME280;72099;43.176;76.872;2024-02-23T00:09:59;90094.09;;;-6.44;64.58
82476;BME280;72099;43.176;76.872;2024-02-23T00:13:00;90094.25;;;-6.34;65.60
82476;BME280;72099;43.176;76.872;2024-02-23T00:16:01;90092.16;;;-6.37;64.71
82476;BME280;72099;43.176;76.872;2024-02-23T00:19:02;90092.72;;;-6.35;64.68
82476;BME280;72099;43.176;76.872;2024-02-23T00:22:03;90112.47;;;-6.31;64.76
82476;BME280;72099;43.176;76.872;2024-02-23T00:25:05;90091.31;;;-6.43;64.80
82476;BME280;72099;43.176;76.872;2024-02-23T00:28:06;90046.03;;;-6.76;64.35
82476;BME280;72099;43.176;76.872;2024-02-23T00:31:08;90128.84;;;-6.32;63.80
82476;BME280;72099;43.176;76.872;2024-02-23T00:34:08;90123.47;;;-6.30;63.84
82476;BME280;72099;43.176;76.872;2024-02-23T00:37:13;90119.06;;;-6.35;64.72
82476;BME280;72099;43.176;76.872;2024-02-23T00:40:14;90114.94;;;-6.53;64.14
82476;BME280;72099;43.176;76.872;2024-02-23T00:43:16;90108.97;;;-6.75;64.69
82476;BME280;72099;43.176;76.872;2024-02-23T00:46:17;90134.06;;;-6.72;64.22
82476;BME280;72099;43.176;76.872;2024-02-23T00:49:17;90137.53;;;-6.78;65.37
82476;BME280;72099;43.176;76.872;2024-02-23T00:52:18;90139.13;;;-6.77;64.92
82476;BME280;72099;43.176;76.872;2024-02-23T00:55:19;90133.88;;;-6.82;64.61
82476;BME280;72099;43.176;76.872;2024-02-23T00:58:20;90135.38;;;-6.86;65.23
82476;BME280;72099;43.176;76.872;2024-02-23T01:01:21;90124.59;;;-6.88;64.65
82476;BME280;72099;43.176;76.872;2024-02-23T01:04:22;90143.28;;;-6.71;64.96
82476;BME280;72099;43.176;76.872;2024-02-23T01:07:23;90137.03;;;-6.63;63.99
82476;BME280;72099;43.176;76.872;2024-02-23T01:10:24;90141.53;;;-6.54;63.28
82476;BME280;72099;43.176;76.872;2024-02-23T01:13:25;90137.59;;;-6.44;63.45
82476;BME280;72099;43.176;76.872;2024-02-23T01:16:25;90141.78;;;-6.38;62.56
82476;BME280;72099;43.176;76.872;2024-02-23T01:19:26;90144.66;;;-6.35;61.31
82476;BME280;72099;43.176;76.872;2024-02-23T01:22:27;90135.28;;;-6.29;60.87
82476;BME280;72099;43.176;76.872;2024-02-23T01:25:28;90141.25;;;-6.23;61.17
82476;BME280;72099;43.176;76.872;2024-02-23T01:28:29;90139.00;;;-6.20;60.69
82476;BME280;72099;43.176;76.872;2024-02-23T01:31:30;90143.25;;;-6.26;60.88
82476;BME280;72099;43.176;76.872;2024-02-23T01:34:30;90150.16;;;-6.26;60.52
82476;BME280;72099;43.176;76.872;2024-02-23T01:37:31;90136.22;;;-6.18;59.96
82476;BME280;72099;43.176;76.872;2024-02-23T01:40:32;90132.25;;;-6.09;59.47
82476;BME280;72099;43.176;76.872;2024-02-23T01:43:33;90132.41;;;-6.16;59.46
82476;BME280;72099;43.176;76.872;2024-02-23T01:46:34;90134.25;;;-6.28;60.54
82476;BME280;72099;43.176;76.872;2024-02-23T01:49:35;90137.75;;;-6.34;61.25
82476;BME280;72099;43.176;76.872;2024-02-23T01:52:37;90143.88;;;-6.35;61.67
82476;BME280;72099;43.176;76.872;2024-02-23T01:55:41;90155.75;;;-6.29;61.21
82476;BME280;72099;43.176;76.872;2024-02-23T01:58:42;90155.97;;;-6.31;61.34
82476;BME280;72099;43.176;76.872;2024-02-23T02:01:43;90142.72;;;-6.28;61.16
82476;BME280;72099;43.176;76.872;2024-02-23T02:04:44;90156.81;;;-6.25;61.40
82476;BME280;72099;43.176;76.872;2024-02-23T02:07:47;90161.25;;;-6.20;61.31
82476;BME280;72099;43.176;76.872;2024-02-23T02:10:51;90151.88;;;-6.15;61.89
82476;BME280;72099;43.176;76.872;2024-02-23T02:13:52;90160.34;;;-5.98;61.30
82476;BME280;72099;43.176;76.872;2024-02-23T02:16:52;90167.84;;;-5.91;61.53
82476;BME280;72099;43.176;76.872;2024-02-23T02:19:54;90145.41;;;-6.01;61.19
82476;BME280;72099;43.176;76.872;2024-02-23T02:22:55;90152.72;;;-5.92;61.38
82476;BME280;72099;43.176;76.872;2024-02-23T02:25:57;90178.28;;;-5.76;61.65
82476;BME280;72099;43.176;76.872;2024-02-23T02:28:58;90183.25;;;-5.69;61.12
82476;BME280;72099;43.176;76.872;2024-02-23T02:32:21;90183.84;;;-5.62;61.13
82476;BME280;72099;43.176;76.872;2024-02-23T02:35:22;90176.56;;;-5.70;61.00
82476;BME280;72099;43.176;76.872;2024-02-23T02:38:23;90187.97;;;-5.61;61.11
82476;BME280;72099;43.176;76.872;2024-02-23T02:41:28;90186.25;;;-5.55;61.03
82476;BME280;72099;43.176;76.872;2024-02-23T02:44:30;90191.53;;;-5.45;60.93
82476;BME280;72099;43.176;76.872;2024-02-23T02:47:31;90197.88;;;-5.31;61.22
82476;BME280;72099;43.176;76.872;2024-02-23T02:50:32;90192.69;;;-5.14;60.85
82476;BME280;72099;43.176;76.872;2024-02-23T02:53:32;90182.84;;;-5.00;60.46
82476;BME280;72099;43.176;76.872;2024-02-23T02:56:33;90192.38;;;-4.74;60.26
82476;BME280;72099;43.176;76.872;2024-02-23T02:59:35;90189.56;;;-4.51;59.50
82476;BME280;72099;43.176;76.872;2024-02-23T03:02:38;90196.19;;;-4.28;59.18
82476;BME280;72099;43.176;76.872;2024-02-23T03:05:39;90197.88;;;-4.11;58.19
82476;BME280;72099;43.176;76.872;2024-02-23T03:08:43;90196.28;;;-3.91;58.03
82476;BME280;72099;43.176;76.872;2024-02-23T03:11:44;90202.59;;;-3.71;57.88
82476;BME280;72099;43.176;76.872;2024-02-23T03:14:45;90199.63;;;-3.53;58.61
82476;BME280;72099;43.176;76.872;2024-02-23T03:17:45;90210.06;;;-3.28;57.57
82476;BME280;72099;43.176;76.872;2024-02-23T03:20:46;90215.34;;;-3.07;58.30
82476;BME280;72099;43.176;76.872;2024-02-23T03:23:47;90209.03;;;-2.84;57.79
82476;BME280;72099;43.176;76.872;2024-02-23T03:26:48;90203.91;;;-2.74;56.73
82476;BME280;72099;43.176;76.872;2024-02-23T03:29:49;90213.56;;;-2.44;57.00
82476;BME280;72099;43.176;76.872;2024-02-23T03:32:50;90212.56;;;-2.28;56.34
82476;BME280;72099;43.176;76.872;2024-02-23T03:35:51;90214.44;;;-2.08;56.61
82476;BME280;72099;43.176;76.872;2024-02-23T03:38:52;90216.00;;;-1.92;56.29
82476;BME280;72099;43.176;76.872;2024-02-23T03:41:53;90215.25;;;-1.77;55.69
82476;BME280;72099;43.176;76.872;2024-02-23T03:44:54;90204.41;;;-1.74;54.93
82476;BME280;72099;43.176;76.872;2024-02-23T03:47:55;90211.38;;;-1.64;54.26
82476;BME280;72099;43.176;76.872;2024-02-23T03:50:56;90205.94;;;-1.58;53.35
82476;BME280;72099;43.176;76.872;2024-02-23T03:53:57;90212.66;;;-1.36;53.18
82476;BME280;72099;43.176;76.872;2024-02-23T03:56:58;90214.97;;;-1.14;52.44
82476;BME280;72099;43.176;76.872;2024-02-23T03:59:59;90217.78;;;-0.91;51.90
82476;BME280;72099;43.176;76.872;2024-02-23T04:03:17;90208.59;;;-0.52;49.96
82476;BME280;72099;43.176;76.872;2024-02-23T04:06:18;90215.97;;;-0.20;49.29
82476;BME280;72099;43.176;76.872;2024-02-23T04:09:19;90209.66;;;0.01;49.22
82476;BME280;72099;43.176;76.872;2024-02-23T04:12:21;90214.72;;;0.21;47.97
82476;BME280;72099;43.176;76.872;2024-02-23T04:15:22;90226.50;;;0.38;46.96
82476;BME280;72099;43.176;76.872;2024-02-23T04:18:23;90218.81;;;0.62;46.87
82476;BME280;72099;43.176;76.872;2024-02-23T04:21:24;90219.13;;;0.89;46.26
82476;BME280;72099;43.176;76.872;2024-02-23T04:24:25;90222.25;;;1.15;45.43
82476;BME280;72099;43.176;76.872;2024-02-23T04:27:26;90219.28;;;1.27;45.40
82476;BME280;72099;43.176;76.872;2024-02-23T04:30:27;90221.28;;;1.35;45.87
82476;BME280;72099;43.176;76.872;2024-02-23T04:33:27;90218.59;;;1.45;45.64
82476;BME280;72099;43.176;76.872;2024-02-23T04:36:28;90220.81;;;1.33;45.55
82476;BME280;72099;43.176;76.872;2024-02-23T04:39:29;90220.56;;;1.29;45.63
82476;BME280;72099;43.176;76.872;2024-02-23T04:42:30;90217.53;;;1.22;45.42
82476;BME280;72099;43.176;76.872;2024-02-23T04:45:31;90227.69;;;1.18;45.63
82476;BME280;72099;43.176;76.872;2024-02-23T04:48:32;90225.00;;;1.00;45.52
82476;BME280;72099;43.176;76.872;2024-02-23T04:51:33;90223.34;;;0.80;45.42
82476;BME280;72099;43.176;76.872;2024-02-23T04:54:34;90225.41;;;0.78;45.48
82476;BME280;72099;43.176;76.872;2024-02-23T04:57:36;90225.97;;;0.75;45.40
82476;BME280;72099;43.176;76.872;2024-02-23T05:00:38;90226.28;;;0.68;45.00
82476;BME280;72099;43.176;76.872;2024-02-23T05:03:39;90207.00;;;0.50;45.01
82476;BME280;72099;43.176;76.872;2024-02-23T05:06:40;90230.22;;;0.61;45.76
82476;BME280;72099;43.176;76.872;2024-02-23T05:09:41;90220.75;;;0.46;45.32
82476;BME280;72099;43.176;76.872;2024-02-23T05:12:41;90230.41;;;0.35;44.72
82476;BME280;72099;43.176;76.872;2024-02-23T05:15:42;90230.00;;;0.13;45.25
82476;BME280;72099;43.176;76.872;2024-02-23T05:18:43;90230.91;;;-0.07;45.47
82476;BME280;72099;43.176;76.872;2024-02-23T05:21:46;90229.63;;;-0.15;45.16
82476;BME280;72099;43.176;76.872;2024-02-23T05:24:47;90220.84;;;-0.14;45.20
82476;BME280;72099;43.176;76.872;2024-02-23T05:27:48;90219.97;;;0.06;44.79
82476;BME280;72099;43.176;76.872;2024-02-23T05:30:49;90216.03;;;0.19;44.86
82476;BME280;72099;43.176;76.872;2024-02-23T05:33:50;90232.88;;;0.50;44.96
82476;BME280;72099;43.176;76.872;2024-02-23T05:36:51;90232.19;;;0.74;44.22
82476;BME280;72099;43.176;76.872;2024-02-23T05:39:52;90222.72;;;0.93;44.21
82476;BME280;72099;43.176;76.872;2024-02-23T05:42:54;90235.34;;;1.29;43.68
82476;BME280;72099;43.176;76.872;2024-02-23T05:45:55;90223.91;;;1.59;42.96
82476;BME280;72099;43.176;76.872;2024-02-23T05:48:59;90227.94;;;1.89;42.67
82476;BME280;72099;43.176;76.872;2024-02-23T05:51:59;90219.00;;;2.56;41.84
82476;BME280;72099;43.176;76.872;2024-02-23T05:55:00;90213.69;;;3.45;40.58
82476;BME280;72099;43.176;76.872;2024-02-23T05:58:01;90222.88;;;4.48;39.24
82476;BME280;72099;43.176;76.872;2024-02-23T06:01:04;90218.16;;;5.39;37.59
82476;BME280;72099;43.176;76.872;2024-02-23T06:04:04;90211.44;;;6.35;37.27
82476;BME280;72099;43.176;76.872;2024-02-23T06:07:06;90215.50;;;6.84;35.55
82476;BME280;72099;43.176;76.872;2024-02-23T06:10:07;90217.94;;;7.15;34.95
82476;BME280;72099;43.176;76.872;2024-02-23T06:13:08;90208.66;;;7.52;34.89
82476;BME280;72099;43.176;76.872;2024-02-23T06:16:11;90214.78;;;8.12;33.19
82476;BME280;72099;43.176;76.872;2024-02-23T06:19:12;90210.69;;;8.82;32.64
82476;BME280;72099;43.176;76.872;2024-02-23T06:22:13;90214.16;;;9.49;32.03
82476;BME280;72099;43.176;76.872;2024-02-23T06:25:15;90213.91;;;10.44;30.82
82476;BME280;72099;43.176;76.872;2024-02-23T06:28:16;90200.75;;;11.93;28.71
82476;BME280;72099;43.176;76.872;2024-02-23T06:31:17;90205.53;;;13.01;27.58
82476;BME280;72099;43.176;76.872;2024-02-23T06:34:18;90195.16;;;13.66;26.29
82476;BME280;72099;43.176;76.872;2024-02-23T06:37:18;90193.66;;;13.46;25.89
82476;BME280;72099;43.176;76.872;2024-02-23T06:40:19;90206.50;;;13.12;25.97
82476;BME280;72099;43.176;76.872;2024-02-23T06:43:20;90193.63;;;12.56;25.90
82476;BME280;72099;43.176;76.872;2024-02-23T06:46:21;90203.66;;;12.19;26.07
82476;BME280;72099;43.176;76.872;2024-02-23T06:49:22;90199.50;;;12.02;25.21
82476;BME280;72099;43.176;76.872;2024-02-23T06:55:50;90196.78;;;11.15;26.15
82476;BME280;72099;43.176;76.872;2024-02-23T06:58:51;90196.75;;;10.87;26.92
82476;BME280;72099;43.176;76.872;2024-02-23T07:01:52;90200.53;;;10.37;26.46
82476;BME280;72099;43.176;76.872;2024-02-23T07:04:53;90163.81;;;9.92;27.34
82476;BME280;72099;43.176;76.872;2024-02-23T07:07:55;90181.94;;;9.72;27.57
82476;BME280;72099;43.176;76.872;2024-02-23T07:10:56;90192.72;;;9.46;28.21
82476;BME280;72099;43.176;76.872;2024-02-23T07:13:57;90188.97;;;9.81;28.46
82476;BME280;72099;43.176;76.872;2024-02-23T07:16:58;90167.22;;;9.92;28.34
82476;BME280;72099;43.176;76.872;2024-02-23T07:19:59;90182.56;;;10.27;28.39
82476;BME280;72099;43.176;76.872;2024-02-23T07:23:05;90175.13;;;10.29;28.03
82476;BME280;72099;43.176;76.872;2024-02-23T07:26:07;90165.22;;;10.01;29.24
82476;BME280;72099;43.176;76.872;2024-02-23T07:29:07;90170.41;;;10.47;29.48
82476;BME280;72099;43.176;76.872;2024-02-23T07:32:08;90160.72;;;10.63;28.94
82476;BME280;72099;43.176;76.872;2024-02-23T07:35:10;90150.84;;;10.72;28.86
82476;BME280;72099;43.176;76.872;2024-02-23T07:38:11;90167.97;;;10.66;29.37
82476;BME280;72099;43.176;76.872;2024-02-23T07:41:12;90159.47;;;10.45;29.51
82476;BME280;72099;43.176;76.872;2024-02-23T07:44:15;90160.00;;;10.26;30.21
82476;BME280;72099;43.176;76.872;2024-02-23T07:47:16;90155.94;;;10.41;29.74
82476;BME280;72099;43.176;76.872;2024-02-23T07:50:17;90156.94;;;10.48;29.27
82476;BME280;72099;43.176;76.872;2024-02-23T07:53:19;90158.47;;;10.25;29.31
82476;BME280;72099;43.176;76.872;2024-02-23T07:56:20;90159.78;;;10.19;30.04
82476;BME280;72099;43.176;76.872;2024-02-23T07:59:21;90145.13;;;10.30;30.12
82476;BME280;72099;43.176;76.872;2024-02-23T08:02:51;90149.09;;;10.76;30.95
82476;BME280;72099;43.176;76.872;2024-02-23T08:05:52;90146.44;;;11.16;30.02
82476;BME280;72099;43.176;76.872;2024-02-23T08:08:53;90141.97;;;11.61;28.86
82476;BME280;72099;43.176;76.872;2024-02-23T08:11:55;90138.25;;;11.77;28.67
82476;BME280;72099;43.176;76.872;2024-02-23T08:15:00;90139.78;;;11.94;28.45
82476;BME280;72099;43.176;76.872;2024-02-23T08:18:01;90133.06;;;12.28;27.43
82476;BME280;72099;43.176;76.872;2024-02-23T08:21:02;90132.22;;;12.08;28.27
82476;BME280;72099;43.176;76.872;2024-02-23T08:24:04;90127.22;;;12.03;28.46
82476;BME280;72099;43.176;76.872;2024-02-23T08:27:05;90120.50;;;12.06;28.01
82476;BME280;72099;43.176;76.872;2024-02-23T08:30:07;90125.84;;;11.94;28.16
82476;BME280;72099;43.176;76.872;2024-02-23T08:33:08;90122.38;;;11.90;29.38
82476;BME280;72099;43.176;76.872;2024-02-23T08:36:10;90120.84;;;11.45;28.46
82476;BME280;72099;43.176;76.872;2024-02-23T08:39:11;90111.63;;;11.67;28.63
82476;BME280;72099;43.176;76.872;2024-02-23T08:42:12;90104.91;;;12.32;28.71
82476;BME280;72099;43.176;76.872;2024-02-23T08:45:13;90103.31;;;12.82;26.97
82476;BME280;72099;43.176;76.872;2024-02-23T08:48:14;90086.78;;;12.66;26.81
82476;BME280;72099;43.176;76.872;2024-02-23T08:51:15;90105.75;;;12.91;26.80
82476;BME280;72099;43.176;76.872;2024-02-23T08:54:16;90102.38;;;12.90;26.39
82476;BME280;72099;43.176;76.872;2024-02-23T08:57:17;90102.50;;;12.97;27.08
82476;BME280;72099;43.176;76.872;2024-02-23T09:00:20;90105.19;;;13.40;25.86
82476;BME280;72099;43.176;76.872;2024-02-23T09:03:21;90114.53;;;13.34;25.19
82476;BME280;72099;43.176;76.872;2024-02-23T09:06:22;90109.91;;;12.73;23.54
82476;BME280;72099;43.176;76.872;2024-02-23T09:09:23;90107.78;;;12.43;24.64
82476;BME280;72099;43.176;76.872;2024-02-23T09:15:53;90110.69;;;11.75;24.98
82476;BME280;72099;43.176;76.872;2024-02-23T09:18:54;90106.34;;;11.07;25.67
82476;BME280;72099;43.176;76.872;2024-02-23T09:21:55;90113.72;;;10.61;26.83
82476;BME280;72099;43.176;76.872;2024-02-23T09:24:56;90112.78;;;10.17;27.15
82476;BME280;72099;43.176;76.872;2024-02-23T09:27:57;90115.28;;;9.40;27.48
82476;BME280;72099;43.176;76.872;2024-02-23T09:30:58;90123.88;;;8.96;28.57
82476;BME280;72099;43.176;76.872;2024-02-23T09:33:59;90131.78;;;8.75;28.32
82476;BME280;72099;43.176;76.872;2024-02-23T09:37:00;90124.59;;;8.42;28.47
82476;BME280;72099;43.176;76.872;2024-02-23T09:40:01;90118.16;;;8.40;28.83
82476;BME280;72099;43.176;76.872;2024-02-23T09:43:03;90115.22;;;8.33;29.16
82476;BME280;72099;43.176;76.872;2024-02-23T09:46:06;90117.22;;;8.15;29.25
82476;BME280;72099;43.176;76.872;2024-02-23T09:49:08;90121.59;;;8.02;29.16
82476;BME280;72099;43.176;76.872;2024-02-23T09:52:12;90119.78;;;7.94;29.69
82476;BME280;72099;43.176;76.872;2024-02-23T09:55:13;90116.72;;;7.92;30.32
82476;BME280;72099;43.176;76.872;2024-02-23T09:58:14;90121.38;;;7.57;29.32
82476;BME280;72099;43.176;76.872;2024-02-23T10:01:26;90134.03;;;7.37;30.65
82476;BME280;72099;43.176;76.872;2024-02-23T10:04:27;90109.53;;;7.04;30.54
82476;BME280;72099;43.176;76.872;2024-02-23T10:07:31;90134.50;;;6.67;30.57
82476;BME280;72099;43.176;76.872;2024-02-23T10:10:33;90142.94;;;6.46;31.82
82476;BME280;72099;43.176;76.872;2024-02-23T10:13:34;90147.50;;;6.24;32.67
82476;BME280;72099;43.176;76.872;2024-02-23T10:16:35;90153.47;;;5.98;34.04
82476;BME280;72099;43.176;76.872;2024-02-23T10:19:37;90173.19;;;5.73;35.05
82476;BME280;72099;43.176;76.872;2024-02-23T10:22:38;90182.72;;;5.47;36.62
82476;BME280;72099;43.176;76.872;2024-02-23T10:25:39;90179.53;;;5.19;37.55
82476;BME280;72099;43.176;76.872;2024-02-23T10:28:40;90185.88;;;4.82;37.98
82476;BME280;72099;43.176;76.872;2024-02-23T10:31:40;90187.66;;;4.50;38.00
82476;BME280;72099;43.176;76.872;2024-02-23T10:34:43;90198.22;;;4.31;37.51
82476;BME280;72099;43.176;76.872;2024-02-23T10:37:44;90201.66;;;4.04;37.80
82476;BME280;72099;43.176;76.872;2024-02-23T10:40:49;90208.97;;;3.75;39.05
82476;BME280;72099;43.176;76.872;2024-02-23T10:43:51;90203.94;;;3.51;39.44
82476;BME280;72099;43.176;76.872;2024-02-23T10:46:53;90217.91;;;3.41;40.25
82476;BME280;72099;43.176;76.872;2024-02-23T10:49:56;90213.66;;;3.32;41.45
82476;BME280;72099;43.176;76.872;2024-02-23T10:53:01;90216.22;;;3.18;42.15
82476;BME280;72099;43.176;76.872;2024-02-23T10:56:03;90221.31;;;3.09;43.12
82476;BME280;72099;43.176;76.872;2024-02-23T10:59:06;90214.13;;;2.87;43.63
82476;BME280;72099;43.176;76.872;2024-02-23T11:02:11;90237.66;;;2.77;44.61
82476;BME280;72099;43.176;76.872;2024-02-23T11:05:14;90247.28;;;2.58;45.19
82476;BME280;72099;43.176;76.872;2024-02-23T11:08:19;90243.06;;;2.43;45.79
82476;BME280;72099;43.176;76.872;2024-02-23T11:11:21;90253.81;;;2.36;46.09
82476;BME280;72099;43.176;76.872;2024-02-23T11:14:38;90254.94;;;2.30;46.67
82476;BME280;72099;43.176;76.872;2024-02-23T11:17:39;90257.41;;;2.22;46.77
82476;BME280;72099;43.176;76.872;2024-02-23T11:20:40;90263.50;;;2.07;47.44
82476;BME280;72099;43.176;76.872;2024-02-23T11:23:47;90262.03;;;2.01;47.66
82476;BME280;72099;43.176;76.872;2024-02-23T11:26:56;90271.84;;;1.85;48.25
82476;BME280;72099;43.176;76.872;2024-02-23T11:30:06;90272.09;;;1.60;48.99
82476;BME280;72099;43.176;76.872;2024-02-23T11:33:08;90274.06;;;1.44;49.59
82476;BME280;72099;43.176;76.872;2024-02-23T11:36:09;90282.09;;;1.18;49.98
82476;BME280;72099;43.176;76.872;2024-02-23T11:39:11;90279.38;;;1.00;50.46
82476;BME280;72099;43.176;76.872;2024-02-23T11:42:13;90285.94;;;0.87;51.10
82476;BME280;72099;43.176;76.872;2024-02-23T11:45:15;90273.84;;;0.77;50.85
82476;BME280;72099;43.176;76.872;2024-02-23T11:48:16;90270.56;;;0.67;52.01
82476;BME280;72099;43.176;76.872;2024-02-23T11:51:17;90278.84;;;0.64;52.31
82476;BME280;72099;43.176;76.872;2024-02-23T11:54:17;90279.63;;;0.64;51.62
82476;BME280;72099;43.176;76.872;2024-02-23T11:57:18;90278.41;;;0.56;52.08
82476;BME280;72099;43.176;76.872;2024-02-23T12:00:19;90288.97;;;0.65;53.17
82476;BME280;72099;43.176;76.872;2024-02-23T12:03:20;90294.25;;;0.84;54.20
82476;BME280;72099;43.176;76.872;2024-02-23T12:06:21;90299.75;;;1.11;54.67
82476;BME280;72099;43.176;76.872;2024-02-23T12:09:22;90310.31;;;1.15;55.11
82476;BME280;72099;43.176;76.872;2024-02-23T12:12:25;90322.94;;;1.27;55.34
82476;BME280;72099;43.176;76.872;2024-02-23T12:15:26;90317.31;;;1.14;55.62
82476;BME280;72099;43.176;76.872;2024-02-23T12:18:29;90314.50;;;1.11;56.00
82476;BME280;72099;43.176;76.872;2024-02-23T12:22:02;90322.28;;;1.11;56.74
82476;BME280;72099;43.176;76.872;2024-02-23T12:25:03;90320.97;;;0.79;56.71
82476;BME280;72099;43.176;76.872;2024-02-23T12:28:04;90313.81;;;0.66;57.54
82476;BME280;72099;43.176;76.872;2024-02-23T12:31:06;90327.34;;;0.53;58.21
82476;BME280;72099;43.176;76.872;2024-02-23T12:34:11;90333.97;;;0.69;59.56
82476;BME280;72099;43.176;76.872;2024-02-23T12:37:16;90334.56;;;0.51;59.14
82476;BME280;72099;43.176;76.872;2024-02-23T12:40:17;90351.72;;;0.37;60.05
82476;BME280;72099;43.176;76.872;2024-02-23T12:43:18;90350.75;;;0.27;59.63
82476;BME280;72099;43.176;76.872;2024-02-23T12:46:22;90351.84;;;0.06;59.19
82476;BME280;72099;43.176;76.872;2024-02-23T12:49:24;90341.06;;;-0.21;59.10
82476;BME280;72099;43.176;76.872;2024-02-23T12:52:25;90356.78;;;0.03;59.94
82476;BME280;72099;43.176;76.872;2024-02-23T12:55:26;90373.84;;;-0.02;59.17
82476;BME280;72099;43.176;76.872;2024-02-23T12:58:27;90386.81;;;-0.12;59.72
82476;BME280;72099;43.176;76.872;2024-02-23T13:01:28;90378.00;;;-0.06;60.03
82476;BME280;72099;43.176;76.872;2024-02-23T13:04:29;90393.25;;;0.01;59.25
82476;BME280;72099;43.176;76.872;2024-02-23T13:07:30;90383.44;;;-0.17;58.86
82476;BME280;72099;43.176;76.872;2024-02-23T13:10:31;90393.56;;;-0.36;58.51
82476;BME280;72099;43.176;76.872;2024-02-23T13:13:32;90404.69;;;-0.51;59.00
82476;BME280;72099;43.176;76.872;2024-02-23T13:16:33;90413.22;;;-0.55;59.38
82476;BME280;72099;43.176;76.872;2024-02-23T13:19:34;90418.91;;;-0.64;59.87
82476;BME280;72099;43.176;76.872;2024-02-23T13:22:54;90430.00;;;-0.83;60.01
82476;BME280;72099;43.176;76.872;2024-02-23T13:25:55;90430.22;;;-0.95;60.08
82476;BME280;72099;43.176;76.872;2024-02-23T13:28:56;90436.91;;;-1.04;59.21
82476;BME280;72099;43.176;76.872;2024-02-23T13:31:58;90444.38;;;-1.18;58.58
82476;BME280;72099;43.176;76.872;2024-02-23T13:34:58;90443.03;;;-1.41;57.98
82476;BME280;72099;43.176;76.872;2024-02-23T13:37:59;90446.06;;;-1.59;57.81
82476;BME280;72099;43.176;76.872;2024-02-23T13:41:06;90456.34;;;-1.64;57.55
82476;BME280;72099;43.176;76.872;2024-02-23T13:44:07;90456.03;;;-1.78;57.32
82476;BME280;72099;43.176;76.872;2024-02-23T13:47:08;90455.44;;;-1.95;57.57
82476;BME280;72099;43.176;76.872;2024-02-23T13:50:12;90457.00;;;-1.94;56.92
82476;BME280;72099;43.176;76.872;2024-02-23T13:53:14;90463.38;;;-2.02;56.85
82476;BME280;72099;43.176;76.872;2024-02-23T13:56:16;90476.53;;;-2.03;57.26
82476;BME280;72099;43.176;76.872;2024-02-23T13:59:17;90472.34;;;-2.10;56.89
82476;BME280;72099;43.176;76.872;2024-02-23T14:02:26;90481.34;;;-2.17;57.62
82476;BME280;72099;43.176;76.872;2024-02-23T14:05:27;90486.22;;;-2.16;57.11
82476;BME280;72099;43.176;76.872;2024-02-23T14:08:29;90482.31;;;-2.23;57.92
82476;BME280;72099;43.176;76.872;2024-02-23T14:11:30;90462.34;;;-2.43;57.79
82476;BME280;72099;43.176;76.872;2024-02-23T14:14:31;90483.03;;;-2.33;58.16
82476;BME280;72099;43.176;76.872;2024-02-23T14:17:33;90491.19;;;-2.46;58.49
82476;BME280;72099;43.176;76.872;2024-02-23T14:20:35;90483.91;;;-2.49;58.92
82476;BME280;72099;43.176;76.872;2024-02-23T14:23:36;90482.69;;;-2.47;59.08
82476;BME280;72099;43.176;76.872;2024-02-23T14:26:37;90492.22;;;-2.42;58.79
82476;BME280;72099;43.176;76.872;2024-02-23T14:29:38;90495.06;;;-2.44;59.74
82476;BME280;72099;43.176;76.872;2024-02-23T14:33:06;90495.06;;;-2.44;59.60
82476;BME280;72099;43.176;76.872;2024-02-23T14:36:07;90500.91;;;-2.48;60.96
82476;BME280;72099;43.176;76.872;2024-02-23T14:39:08;90495.72;;;-2.58;61.23
82476;BME280;72099;43.176;76.872;2024-02-23T14:42:10;90493.28;;;-2.70;62.26
82476;BME280;72099;43.176;76.872;2024-02-23T14:45:13;90493.44;;;-2.82;62.82
82476;BME280;72099;43.176;76.872;2024-02-23T14:48:17;90495.63;;;-2.95;63.64
82476;BME280;72099;43.176;76.872;2024-02-23T14:51:18;90495.28;;;-3.04;64.06
82476;BME280;72099;43.176;76.872;2024-02-23T14:54:19;90490.88;;;-3.09;65.16
82476;BME280;72099;43.176;76.872;2024-02-23T14:57:20;90494.47;;;-3.10;64.74
82476;BME280;72099;43.176;76.872;2024-02-23T15:00:22;90492.19;;;-3.06;65.55
82476;BME280;72099;43.176;76.872;2024-02-23T15:03:24;90488.09;;;-3.02;65.19
82476;BME280;72099;43.176;76.872;2024-02-23T15:06:25;90444.59;;;-3.31;66.52
82476;BME280;72099;43.176;76.872;2024-02-23T15:09:28;90480.75;;;-3.15;66.90
82476;BME280;72099;43.176;76.872;2024-02-23T15:12:29;90472.75;;;-3.19;67.18
82476;BME280;72099;43.176;76.872;2024-02-23T15:15:31;90475.09;;;-3.17;67.15
82476;BME280;72099;43.176;76.872;2024-02-23T15:18:32;90478.38;;;-3.22;67.41
82476;BME280;72099;43.176;76.872;2024-02-23T15:21:33;90444.94;;;-3.49;67.93
82476;BME280;72099;43.176;76.872;2024-02-23T15:24:40;90481.22;;;-3.23;67.72
82476;BME280;72099;43.176;76.872;2024-02-23T15:27:46;90483.72;;;-3.29;67.97
82476;BME280;72099;43.176;76.872;2024-02-23T15:30:50;90490.34;;;-3.33;68.17
82476;BME280;72099;43.176;76.872;2024-02-23T15:33:53;90477.47;;;-3.38;68.61
82476;BME280;72099;43.176;76.872;2024-02-23T15:36:54;90482.88;;;-3.34;69.54
82476;BME280;72099;43.176;76.872;2024-02-23T15:39:55;90474.66;;;-3.36;69.12
82476;BME280;72099;43.176;76.872;2024-02-23T15:42:56;90464.78;;;-3.44;69.42
82476;BME280;72099;43.176;76.872;2024-02-23T15:45:58;90465.94;;;-3.30;69.29
82476;BME280;72099;43.176;76.872;2024-02-23T15:48:59;90463.44;;;-3.25;70.28
82476;BME280;72099;43.176;76.872;2024-02-23T15:52:00;90465.53;;;-3.22;69.85
82476;BME280;72099;43.176;76.872;2024-02-23T15:55:01;90446.41;;;-3.31;69.55
82476;BME280;72099;43.176;76.872;2024-02-23T15:58:03;90450.00;;;-3.32;70.25
82476;BME280;72099;43.176;76.872;2024-02-23T16:01:04;90453.88;;;-3.30;70.64